sensor_id;sensor_type;location;lat;lon;timestamp;P1;durP1;ratioP1;P2;durP2;ratioP2
60704;SDS011;46545;38.014;-7.874;2023-02-08T00:01:57;2.22;;;1.63;;
60704;SDS011;46545;38.014;-7.874;2023-02-08T00:03:57;2.92;;;1.90;;
60704;SDS011;46545;38.014;-7.874;2023-02-08T00:05:57;3.28;;;2.38;;
60704;SDS011;46545;38.014;-7.874;2023-02-08T00:07:58;3.20;;;1.60;;
60704;SDS011;46545;38.014;-7.874;2023-02-08T00:09:58;4.13;;;2.17;;
60704;SDS011;46545;38.014;-7.874;2023-02-08T00:11:59;3.30;;;1.92;;
60704;SDS011;46545;38.014;-7.874;2023-02-08T00:13:59;3.08;;;2.15;;
60704;SDS011;46545;38.014;-7.874;2023-02-08T00:16:00;1.90;;;1.50;;
60704;SDS011;46545;38.014;-7.874;2023-02-08T00:18:00;3.10;;;1.85;;
60704;SDS011;46545;38.014;-7.874;2023-02-08T00:20:01;3.42;;;1.70;;
60704;SDS011;46545;38.014;-7.874;2023-02-08T00:22:01;4.38;;;1.95;;
60704;SDS011;46545;38.014;-7.874;2023-02-08T00:24:02;4.72;;;1.80;;
60704;SDS011;46545;38.014;-7.874;2023-02-08T00:26:02;1.75;;;1.60;;
60704;SDS011;46545;38.014;-7.874;2023-02-08T00:28:03;3.17;;;1.80;;
60704;SDS011;46545;38.014;-7.874;2023-02-08T00:30:04;6.03;;;2.10;;
60704;SDS011;46545;38.014;-7.874;2023-02-08T00:32:04;4.63;;;1.95;;
60704;SDS011;46545;38.014;-7.874;2023-02-08T00:34:05;3.22;;;1.60;;
60704;SDS011;46545;38.014;-7.874;2023-02-08T00:36:06;4.60;;;2.50;;
60704;SDS011;46545;38.014;-7.874;2023-02-08T00:38:07;3.03;;;1.85;;
60704;SDS011;46545;38.014;-7.874;2023-02-08T00:40:08;2.20;;;1.85;;
60704;SDS011;46545;38.014;-7.874;2023-02-08T00:42:08;2.45;;;1.90;;
60704;SDS011;46545;38.014;-7.874;2023-02-08T00:44:09;2.78;;;1.73;;
60704;SDS011;46545;38.014;-7.874;2023-02-08T00:46:09;2.60;;;1.67;;
60704;SDS011;46545;38.014;-7.874;2023-02-08T00:48:11;2.60;;;2.00;;
60704;SDS011;46545;38.014;-7.874;2023-02-08T00:50:13;1.90;;;1.52;;
60704;SDS011;46545;38.014;-7.874;2023-02-08T00:52:13;2.45;;;1.58;;
60704;SDS011;46545;38.014;-7.874;2023-02-08T00:54:15;1.73;;;1.40;;
60704;SDS011;46545;38.014;-7.874;2023-02-08T00:56:15;2.35;;;2.10;;
60704;SDS011;46545;38.014;-7.874;2023-02-08T00:58:16;4.20;;;2.58;;
60704;SDS011;46545;38.014;-7.874;2023-02-08T01:00:16;1.92;;;1.73;;
60704;SDS011;46545;38.014;-7.874;2023-02-08T01:02:17;5.03;;;2.08;;
60704;SDS011;46545;38.014;-7.874;2023-02-08T01:04:18;2.45;;;1.85;;
60704;SDS011;46545;38.014;-7.874;2023-02-08T01:06:20;2.65;;;1.65;;
60704;SDS011;46545;38.014;-7.874;2023-02-08T01:08:21;4.53;;;2.10;;
60704;SDS011;46545;38.014;-7.874;2023-02-08T01:10:22;3.42;;;1.88;;
60704;SDS011;46545;38.014;-7.874;2023-02-08T01:12:22;2.22;;;1.65;;
60704;SDS011;46545;38.014;-7.874;2023-02-08T01:14:24;4.15;;;1.98;;
60704;SDS011;46545;38.014;-7.874;2023-02-08T01:16:28;4.32;;;1.92;;
60704;SDS011;46545;38.014;-7.874;2023-02-08T01:18:29;4.57;;;2.05;;
60704;SDS011;46545;38.014;-7.874;2023-02-08T01:20:29;2.55;;;1.58;;
60704;SDS011;46545;38.014;-7.874;2023-02-08T01:22:30;2.45;;;2.20;;
60704;SDS011;46545;38.014;-7.874;2023-02-08T01:24:31;3.47;;;2.10;;
60704;SDS011;46545;38.014;-7.874;2023-02-08T01:26:31;2.78;;;1.75;;
60704;SDS011;46545;38.014;-7.874;2023-02-08T01:28:32;2.83;;;1.88;;
60704;SDS011;46545;38.014;-7.874;2023-02-08T01:30:33;4.57;;;2.63;;
60704;SDS011;46545;38.014;-7.874;2023-02-08T01:32:33;3.88;;;1.77;;
60704;SDS011;46545;38.014;-7.874;2023-02-08T01:34:35;4.18;;;1.75;;
60704;SDS011;46545;38.014;-7.874;2023-02-08T01:36:38;2.80;;;2.08;;
60704;SDS011;46545;38.014;-7.874;2023-02-08T01:38:41;2.35;;;2.13;;
60704;SDS011;46545;38.014;-7.874;2023-02-08T01:40:42;2.25;;;1.75;;
60704;SDS011;46545;38.014;-7.874;2023-02-08T01:42:43;3.08;;;1.63;;
60704;SDS011;46545;38.014;-7.874;2023-02-08T01:47:02;2.40;;;1.63;;
60704;SDS011;46545;38.014;-7.874;2023-02-08T01:51:13;2.65;;;2.00;;
60704;SDS011;46545;38.014;-7.874;2023-02-08T01:53:15;3.92;;;1.95;;
60704;SDS011;46545;38.014;-7.874;2023-02-08T01:55:19;3.20;;;2.13;;
60704;SDS011;46545;38.014;-7.874;2023-02-08T01:57:22;2.70;;;1.95;;
60704;SDS011;46545;38.014;-7.874;2023-02-08T01:59:24;4.53;;;2.13;;
60704;SDS011;46545;38.014;-7.874;2023-02-08T02:01:25;5.25;;;1.75;;
60704;SDS011;46545;38.014;-7.874;2023-02-08T02:03:27;2.50;;;1.85;;
60704;SDS011;46545;38.014;-7.874;2023-02-08T02:05:29;2.25;;;1.75;;
60704;SDS011;46545;38.014;-7.874;2023-02-08T02:07:32;3.30;;;2.15;;
60704;SDS011;46545;38.014;-7.874;2023-02-08T02:11:52;4.15;;;2.17;;
60704;SDS011;46545;38.014;-7.874;2023-02-08T02:13:53;3.78;;;2.15;;
60704;SDS011;46545;38.014;-7.874;2023-02-08T02:15:53;2.13;;;1.60;;
60704;SDS011;46545;38.014;-7.874;2023-02-08T02:17:54;1.98;;;1.55;;
60704;SDS011;46545;38.014;-7.874;2023-02-08T02:19:58;2.55;;;1.90;;
60704;SDS011;46545;38.014;-7.874;2023-02-08T02:28:57;4.93;;;2.13;;
60704;SDS011;46545;38.014;-7.874;2023-02-08T02:35:09;1.85;;;1.58;;
60704;SDS011;46545;38.014;-7.874;2023-02-08T02:37:28;3.30;;;1.80;;
60704;SDS011;46545;38.014;-7.874;2023-02-08T02:41:56;3.97;;;1.60;;
60704;SDS011;46545;38.014;-7.874;2023-02-08T02:44:42;2.15;;;1.92;;
60704;SDS011;46545;38.014;-7.874;2023-02-08T02:46:40;2.63;;;1.85;;
60704;SDS011;46545;38.014;-7.874;2023-02-08T02:50:49;2.13;;;1.60;;
60704;SDS011;46545;38.014;-7.874;2023-02-08T02:52:54;2.05;;;1.80;;
60704;SDS011;46545;38.014;-7.874;2023-02-08T02:54:58;2.38;;;1.77;;
60704;SDS011;46545;38.014;-7.874;2023-02-08T02:57:01;2.13;;;1.70;;
60704;SDS011;46545;38.014;-7.874;2023-02-08T02:59:04;1.98;;;1.77;;
60704;SDS011;46545;38.014;-7.874;2023-02-08T03:01:05;4.75;;;2.00;;
60704;SDS011;46545;38.014;-7.874;2023-02-08T03:03:05;4.32;;;2.20;;
60704;SDS011;46545;38.014;-7.874;2023-02-08T03:05:08;2.92;;;1.80;;
60704;SDS011;46545;38.014;-7.874;2023-02-08T03:07:21;2.83;;;1.70;;
60704;SDS011;46545;38.014;-7.874;2023-02-08T03:11:35;4.55;;;1.67;;
60704;SDS011;46545;38.014;-7.874;2023-02-08T03:13:44;2.90;;;1.90;;
60704;SDS011;46545;38.014;-7.874;2023-02-08T03:18:25;2.95;;;2.13;;
60704;SDS011;46545;38.014;-7.874;2023-02-08T03:22:58;2.30;;;2.10;;
60704;SDS011;46545;38.014;-7.874;2023-02-08T03:25:00;3.45;;;2.00;;
60704;SDS011;46545;38.014;-7.874;2023-02-08T03:29:10;2.72;;;1.90;;
60704;SDS011;46545;38.014;-7.874;2023-02-08T03:31:22;4.10;;;2.33;;
60704;SDS011;46545;38.014;-7.874;2023-02-08T03:33:25;3.53;;;1.98;;
60704;SDS011;46545;38.014;-7.874;2023-02-08T03:37:32;3.28;;;1.90;;
60704;SDS011;46545;38.014;-7.874;2023-02-08T03:39:35;4.72;;;1.83;;
60704;SDS011;46545;38.014;-7.874;2023-02-08T03:41:37;2.63;;;1.98;;
60704;SDS011;46545;38.014;-7.874;2023-02-08T03:43:39;2.05;;;1.85;;
60704;SDS011;46545;38.014;-7.874;2023-02-08T03:45:43;4.05;;;2.33;;
60704;SDS011;46545;38.014;-7.874;2023-02-08T03:47:46;1.88;;;1.48;;
60704;SDS011;46545;38.014;-7.874;2023-02-08T03:49:49;4.20;;;2.38;;
60704;SDS011;46545;38.014;-7.874;2023-02-08T03:51:51;3.92;;;1.92;;
60704;SDS011;46545;38.014;-7.874;2023-02-08T03:53:52;2.72;;;2.08;;
60704;SDS011;46545;38.014;-7.874;2023-02-08T03:55:55;3.33;;;2.00;;
60704;SDS011;46545;38.014;-7.874;2023-02-08T04:00:08;3.47;;;2.25;;
60704;SDS011;46545;38.014;-7.874;2023-02-08T04:02:14;2.20;;;1.75;;
60704;SDS011;46545;38.014;-7.874;2023-02-08T04:04:17;4.75;;;1.98;;
60704;SDS011;46545;38.014;-7.874;2023-02-08T04:06:18;1.77;;;1.67;;
60704;SDS011;46545;38.014;-7.874;2023-02-08T04:08:19;3.53;;;2.05;;
60704;SDS011;46545;38.014;-7.874;2023-02-08T04:10:20;2.47;;;1.80;;
60704;SDS011;46545;38.014;-7.874;2023-02-08T04:12:21;2.33;;;1.67;;
60704;SDS011;46545;38.014;-7.874;2023-02-08T04:14:21;4.10;;;2.30;;
60704;SDS011;46545;38.014;-7.874;2023-02-08T04:16:22;2.50;;;1.52;;
60704;SDS011;46545;38.014;-7.874;2023-02-08T04:18:22;2.75;;;1.80;;
60704;SDS011;46545;38.014;-7.874;2023-02-08T04:20:23;2.50;;;1.70;;
60704;SDS011;46545;38.014;-7.874;2023-02-08T04:22:23;1.80;;;1.50;;
60704;SDS011;46545;38.014;-7.874;2023-02-08T04:24:24;2.70;;;1.60;;
60704;SDS011;46545;38.014;-7.874;2023-02-08T04:26:24;2.90;;;1.83;;
60704;SDS011;46545;38.014;-7.874;2023-02-08T04:28:25;2.08;;;1.80;;
60704;SDS011;46545;38.014;-7.874;2023-02-08T04:30:25;2.80;;;1.80;;
60704;SDS011;46545;38.014;-7.874;2023-02-08T04:32:26;1.98;;;1.58;;
60704;SDS011;46545;38.014;-7.874;2023-02-08T04:34:26;3.63;;;1.70;;
60704;SDS011;46545;38.014;-7.874;2023-02-08T04:36:27;3.95;;;1.63;;
60704;SDS011;46545;38.014;-7.874;2023-02-08T04:38:27;3.38;;;2.03;;
60704;SDS011;46545;38.014;-7.874;2023-02-08T04:40:28;2.20;;;1.70;;
60704;SDS011;46545;38.014;-7.874;2023-02-08T04:42:29;2.80;;;1.85;;
60704;SDS011;46545;38.014;-7.874;2023-02-08T04:44:29;3.95;;;1.52;;
60704;SDS011;46545;38.014;-7.874;2023-02-08T04:46:31;1.90;;;1.40;;
60704;SDS011;46545;38.014;-7.874;2023-02-08T04:48:32;1.85;;;1.58;;
60704;SDS011;46545;38.014;-7.874;2023-02-08T04:50:33;1.88;;;1.40;;
60704;SDS011;46545;38.014;-7.874;2023-02-08T04:52:33;2.75;;;1.58;;
60704;SDS011;46545;38.014;-7.874;2023-02-08T04:54:34;1.85;;;1.40;;
60704;SDS011;46545;38.014;-7.874;2023-02-08T04:56:35;3.08;;;1.77;;
60704;SDS011;46545;38.014;-7.874;2023-02-08T04:58:35;4.53;;;2.00;;
60704;SDS011;46545;38.014;-7.874;2023-02-08T05:00:36;2.72;;;1.45;;
60704;SDS011;46545;38.014;-7.874;2023-02-08T05:02:36;2.65;;;1.45;;
60704;SDS011;46545;38.014;-7.874;2023-02-08T05:04:37;4.13;;;1.70;;
60704;SDS011;46545;38.014;-7.874;2023-02-08T05:06:37;3.20;;;1.90;;
60704;SDS011;46545;38.014;-7.874;2023-02-08T05:08:38;2.30;;;1.35;;
60704;SDS011;46545;38.014;-7.874;2023-02-08T05:10:42;3.00;;;1.33;;
60704;SDS011;46545;38.014;-7.874;2023-02-08T05:12:43;3.72;;;2.20;;
60704;SDS011;46545;38.014;-7.874;2023-02-08T05:14:43;3.42;;;2.30;;
60704;SDS011;46545;38.014;-7.874;2023-02-08T05:16:44;2.40;;;1.52;;
60704;SDS011;46545;38.014;-7.874;2023-02-08T05:18:44;3.05;;;1.25;;
60704;SDS011;46545;38.014;-7.874;2023-02-08T05:20:44;3.90;;;1.50;;
60704;SDS011;46545;38.014;-7.874;2023-02-08T05:22:45;2.55;;;1.42;;
60704;SDS011;46545;38.014;-7.874;2023-02-08T05:24:46;2.38;;;1.50;;
60704;SDS011;46545;38.014;-7.874;2023-02-08T05:26:46;1.50;;;1.40;;
60704;SDS011;46545;38.014;-7.874;2023-02-08T05:28:47;1.65;;;1.50;;
60704;SDS011;46545;38.014;-7.874;2023-02-08T05:30:47;2.53;;;1.50;;
60704;SDS011;46545;38.014;-7.874;2023-02-08T05:32:48;3.40;;;1.65;;
60704;SDS011;46545;38.014;-7.874;2023-02-08T05:34:48;3.38;;;1.63;;
60704;SDS011;46545;38.014;-7.874;2023-02-08T05:36:49;1.90;;;1.40;;
60704;SDS011;46545;38.014;-7.874;2023-02-08T05:38:49;2.55;;;1.80;;
60704;SDS011;46545;38.014;-7.874;2023-02-08T05:40:49;1.33;;;0.88;;
60704;SDS011;46545;38.014;-7.874;2023-02-08T05:42:50;1.80;;;1.20;;
60704;SDS011;46545;38.014;-7.874;2023-02-08T05:44:50;1.55;;;1.30;;
60704;SDS011;46545;38.014;-7.874;2023-02-08T05:46:51;1.70;;;1.25;;
60704;SDS011;46545;38.014;-7.874;2023-02-08T05:48:52;2.90;;;1.40;;
60704;SDS011;46545;38.014;-7.874;2023-02-08T05:50:52;2.13;;;1.50;;
60704;SDS011;46545;38.014;-7.874;2023-02-08T05:52:53;2.17;;;1.40;;
60704;SDS011;46545;38.014;-7.874;2023-02-08T05:54:53;1.42;;;1.30;;
60704;SDS011;46545;38.014;-7.874;2023-02-08T05:56:54;3.47;;;1.40;;
60704;SDS011;46545;38.014;-7.874;2023-02-08T05:58:54;2.20;;;1.30;;
60704;SDS011;46545;38.014;-7.874;2023-02-08T06:00:55;1.95;;;1.70;;
60704;SDS011;46545;38.014;-7.874;2023-02-08T06:02:56;2.55;;;1.55;;
60704;SDS011;46545;38.014;-7.874;2023-02-08T06:04:56;2.08;;;1.27;;
60704;SDS011;46545;38.014;-7.874;2023-02-08T06:06:57;2.25;;;1.67;;
60704;SDS011;46545;38.014;-7.874;2023-02-08T06:08:57;2.13;;;2.03;;
60704;SDS011;46545;38.014;-7.874;2023-02-08T06:10:57;1.75;;;1.25;;
60704;SDS011;46545;38.014;-7.874;2023-02-08T06:12:58;2.03;;;1.77;;
60704;SDS011;46545;38.014;-7.874;2023-02-08T06:14:58;3.05;;;1.30;;
60704;SDS011;46545;38.014;-7.874;2023-02-08T06:16:59;2.17;;;1.52;;
60704;SDS011;46545;38.014;-7.874;2023-02-08T06:18:59;2.72;;;1.70;;
60704;SDS011;46545;38.014;-7.874;2023-02-08T06:21:00;2.35;;;1.65;;
60704;SDS011;46545;38.014;-7.874;2023-02-08T06:23:00;1.48;;;1.38;;
60704;SDS011;46545;38.014;-7.874;2023-02-08T06:25:01;2.35;;;1.60;;
60704;SDS011;46545;38.014;-7.874;2023-02-08T06:27:01;2.13;;;1.13;;
60704;SDS011;46545;38.014;-7.874;2023-02-08T06:29:01;2.15;;;1.50;;
60704;SDS011;46545;38.014;-7.874;2023-02-08T06:31:02;1.98;;;1.00;;
60704;SDS011;46545;38.014;-7.874;2023-02-08T06:33:03;2.97;;;1.63;;
60704;SDS011;46545;38.014;-7.874;2023-02-08T06:35:03;4.93;;;1.65;;
60704;SDS011;46545;38.014;-7.874;2023-02-08T06:37:04;4.97;;;1.65;;
60704;SDS011;46545;38.014;-7.874;2023-02-08T06:39:04;2.47;;;1.77;;
60704;SDS011;46545;38.014;-7.874;2023-02-08T06:41:05;3.13;;;1.50;;
60704;SDS011;46545;38.014;-7.874;2023-02-08T06:43:05;1.27;;;1.05;;
60704;SDS011;46545;38.014;-7.874;2023-02-08T06:45:06;3.03;;;1.75;;
60704;SDS011;46545;38.014;-7.874;2023-02-08T06:47:08;2.45;;;1.70;;
60704;SDS011;46545;38.014;-7.874;2023-02-08T06:49:09;2.13;;;1.40;;
60704;SDS011;46545;38.014;-7.874;2023-02-08T06:51:10;2.70;;;1.80;;
60704;SDS011;46545;38.014;-7.874;2023-02-08T06:53:10;4.03;;;1.92;;
60704;SDS011;46545;38.014;-7.874;2023-02-08T06:55:11;1.38;;;1.00;;
60704;SDS011;46545;38.014;-7.874;2023-02-08T06:57:11;2.88;;;1.83;;
60704;SDS011;46545;38.014;-7.874;2023-02-08T06:59:12;2.60;;;1.75;;
60704;SDS011;46545;38.014;-7.874;2023-02-08T07:01:12;3.35;;;1.38;;
60704;SDS011;46545;38.014;-7.874;2023-02-08T07:03:13;2.97;;;1.35;;
60704;SDS011;46545;38.014;-7.874;2023-02-08T07:05:15;2.65;;;1.77;;
60704;SDS011;46545;38.014;-7.874;2023-02-08T07:07:16;1.80;;;1.60;;
60704;SDS011;46545;38.014;-7.874;2023-02-08T07:09:17;3.00;;;1.75;;
60704;SDS011;46545;38.014;-7.874;2023-02-08T07:11:18;3.35;;;1.58;;
60704;SDS011;46545;38.014;-7.874;2023-02-08T07:13:19;2.97;;;1.25;;
60704;SDS011;46545;38.014;-7.874;2023-02-08T07:15:19;2.03;;;1.40;;
60704;SDS011;46545;38.014;-7.874;2023-02-08T07:17:19;6.30;;;1.60;;
60704;SDS011;46545;38.014;-7.874;2023-02-08T07:19:20;3.30;;;1.50;;
60704;SDS011;46545;38.014;-7.874;2023-02-08T07:21:20;3.67;;;1.38;;
60704;SDS011;46545;38.014;-7.874;2023-02-08T07:23:21;2.20;;;1.60;;
60704;SDS011;46545;38.014;-7.874;2023-02-08T07:25:21;4.13;;;1.50;;
60704;SDS011;46545;38.014;-7.874;2023-02-08T07:27:22;4.20;;;1.60;;
60704;SDS011;46545;38.014;-7.874;2023-02-08T07:29:22;2.88;;;1.30;;
60704;SDS011;46545;38.014;-7.874;2023-02-08T07:31:22;2.45;;;1.33;;
60704;SDS011;46545;38.014;-7.874;2023-02-08T07:33:23;1.88;;;1.50;;
60704;SDS011;46545;38.014;-7.874;2023-02-08T07:35:24;2.13;;;1.70;;
60704;SDS011;46545;38.014;-7.874;2023-02-08T07:37:24;2.15;;;1.30;;
60704;SDS011;46545;38.014;-7.874;2023-02-08T07:39:25;2.72;;;1.50;;
60704;SDS011;46545;38.014;-7.874;2023-02-08T07:41:25;12.90;;;2.10;;
60704;SDS011;46545;38.014;-7.874;2023-02-08T07:43:26;6.38;;;1.83;;
60704;SDS011;46545;38.014;-7.874;2023-02-08T07:45:31;2.08;;;1.50;;
60704;SDS011;46545;38.014;-7.874;2023-02-08T07:47:32;2.35;;;1.55;;
60704;SDS011;46545;38.014;-7.874;2023-02-08T07:49:33;3.90;;;1.13;;
60704;SDS011;46545;38.014;-7.874;2023-02-08T07:51:33;5.53;;;1.80;;
60704;SDS011;46545;38.014;-7.874;2023-02-08T07:53:34;2.47;;;1.35;;
60704;SDS011;46545;38.014;-7.874;2023-02-08T07:55:35;3.78;;;1.50;;
60704;SDS011;46545;38.014;-7.874;2023-02-08T07:57:35;2.97;;;1.35;;
60704;SDS011;46545;38.014;-7.874;2023-02-08T07:59:36;3.08;;;1.45;;
60704;SDS011;46545;38.014;-7.874;2023-02-08T08:01:36;3.65;;;1.60;;
60704;SDS011;46545;38.014;-7.874;2023-02-08T08:03:36;2.55;;;1.65;;
60704;SDS011;46545;38.014;-7.874;2023-02-08T08:05:38;4.57;;;1.85;;
60704;SDS011;46545;38.014;-7.874;2023-02-08T08:07:39;1.33;;;1.20;;
60704;SDS011;46545;38.014;-7.874;2023-02-08T08:09:40;3.00;;;2.15;;
60704;SDS011;46545;38.014;-7.874;2023-02-08T08:11:40;4.30;;;1.73;;
60704;SDS011;46545;38.014;-7.874;2023-02-08T08:13:41;2.90;;;1.65;;
60704;SDS011;46545;38.014;-7.874;2023-02-08T08:15:41;2.53;;;1.92;;
60704;SDS011;46545;38.014;-7.874;2023-02-08T08:17:42;8.15;;;1.95;;
60704;SDS011;46545;38.014;-7.874;2023-02-08T08:19:42;4.53;;;1.58;;
60704;SDS011;46545;38.014;-7.874;2023-02-08T08:21:43;2.85;;;2.00;;
60704;SDS011;46545;38.014;-7.874;2023-02-08T08:23:43;2.58;;;1.15;;
60704;SDS011;46545;38.014;-7.874;2023-02-08T08:25:44;3.70;;;1.80;;
60704;SDS011;46545;38.014;-7.874;2023-02-08T08:27:44;3.53;;;1.05;;
60704;SDS011;46545;38.014;-7.874;2023-02-08T08:29:45;4.30;;;1.60;;
60704;SDS011;46545;38.014;-7.874;2023-02-08T08:31:45;2.95;;;1.08;;
60704;SDS011;46545;38.014;-7.874;2023-02-08T08:33:46;1.60;;;1.10;;
60704;SDS011;46545;38.014;-7.874;2023-02-08T08:35:47;11.02;;;1.88;;
60704;SDS011;46545;38.014;-7.874;2023-02-08T08:37:47;4.55;;;1.52;;
60704;SDS011;46545;38.014;-7.874;2023-02-08T08:39:49;2.00;;;1.33;;
60704;SDS011;46545;38.014;-7.874;2023-02-08T08:41:49;3.60;;;1.25;;
60704;SDS011;46545;38.014;-7.874;2023-02-08T08:43:50;4.40;;;1.65;;
60704;SDS011;46545;38.014;-7.874;2023-02-08T08:45:50;5.63;;;1.73;;
60704;SDS011;46545;38.014;-7.874;2023-02-08T08:47:51;2.75;;;1.70;;
60704;SDS011;46545;38.014;-7.874;2023-02-08T08:49:51;3.25;;;1.80;;
60704;SDS011;46545;38.014;-7.874;2023-02-08T08:51:52;5.25;;;2.15;;
60704;SDS011;46545;38.014;-7.874;2023-02-08T08:53:52;3.40;;;2.05;;
60704;SDS011;46545;38.014;-7.874;2023-02-08T08:55:53;7.65;;;2.17;;
60704;SDS011;46545;38.014;-7.874;2023-02-08T08:57:53;1.80;;;1.27;;
60704;SDS011;46545;38.014;-7.874;2023-02-08T08:59:54;5.30;;;1.98;;
60704;SDS011;46545;38.014;-7.874;2023-02-08T09:01:54;3.20;;;1.30;;
60704;SDS011;46545;38.014;-7.874;2023-02-08T09:03:55;2.85;;;1.17;;
60704;SDS011;46545;38.014;-7.874;2023-02-08T09:05:55;1.98;;;1.15;;
60704;SDS011;46545;38.014;-7.874;2023-02-08T09:07:56;2.97;;;1.35;;
60704;SDS011;46545;38.014;-7.874;2023-02-08T09:09:56;8.73;;;1.58;;
60704;SDS011;46545;38.014;-7.874;2023-02-08T09:11:57;1.95;;;1.33;;
60704;SDS011;46545;38.014;-7.874;2023-02-08T09:13:57;3.00;;;1.13;;
60704;SDS011;46545;38.014;-7.874;2023-02-08T09:15:58;1.85;;;1.17;;
60704;SDS011;46545;38.014;-7.874;2023-02-08T09:17:58;2.00;;;1.23;;
60704;SDS011;46545;38.014;-7.874;2023-02-08T09:19:59;2.42;;;1.13;;
60704;SDS011;46545;38.014;-7.874;2023-02-08T09:21:59;2.92;;;1.23;;
60704;SDS011;46545;38.014;-7.874;2023-02-08T09:24:00;1.55;;;1.27;;
60704;SDS011;46545;38.014;-7.874;2023-02-08T09:26:01;2.53;;;1.30;;
60704;SDS011;46545;38.014;-7.874;2023-02-08T09:28:02;3.33;;;1.63;;
60704;SDS011;46545;38.014;-7.874;2023-02-08T09:30:03;3.03;;;1.40;;
60704;SDS011;46545;38.014;-7.874;2023-02-08T09:32:04;4.22;;;1.10;;
60704;SDS011;46545;38.014;-7.874;2023-02-08T09:34:04;3.38;;;1.58;;
60704;SDS011;46545;38.014;-7.874;2023-02-08T09:36:05;3.22;;;1.15;;
60704;SDS011;46545;38.014;-7.874;2023-02-08T09:38:06;2.83;;;1.20;;
60704;SDS011;46545;38.014;-7.874;2023-02-08T09:40:12;1.58;;;0.93;;
60704;SDS011;46545;38.014;-7.874;2023-02-08T09:42:29;1.80;;;1.25;;
60704;SDS011;46545;38.014;-7.874;2023-02-08T09:44:41;2.35;;;1.30;;
60704;SDS011;46545;38.014;-7.874;2023-02-08T09:46:48;5.18;;;1.67;;
60704;SDS011;46545;38.014;-7.874;2023-02-08T09:48:50;2.78;;;1.02;;
60704;SDS011;46545;38.014;-7.874;2023-02-08T09:50:52;5.75;;;1.67;;
60704;SDS011;46545;38.014;-7.874;2023-02-08T09:53:12;2.92;;;1.55;;
60704;SDS011;46545;38.014;-7.874;2023-02-08T09:57:15;6.05;;;1.98;;
60704;SDS011;46545;38.014;-7.874;2023-02-08T09:59:21;2.47;;;1.27;;
60704;SDS011;46545;38.014;-7.874;2023-02-08T10:01:23;5.35;;;1.95;;
60704;SDS011;46545;38.014;-7.874;2023-02-08T10:05:24;3.03;;;1.80;;
60704;SDS011;46545;38.014;-7.874;2023-02-08T10:07:26;3.72;;;1.40;;
60704;SDS011;46545;38.014;-7.874;2023-02-08T10:09:27;2.90;;;1.75;;
60704;SDS011;46545;38.014;-7.874;2023-02-08T10:20:31;8.02;;;2.30;;
60704;SDS011;46545;38.014;-7.874;2023-02-08T10:22:24;5.18;;;1.63;;
60704;SDS011;46545;38.014;-7.874;2023-02-08T10:26:45;4.40;;;1.60;;
60704;SDS011;46545;38.014;-7.874;2023-02-08T10:31:11;3.05;;;1.50;;
60704;SDS011;46545;38.014;-7.874;2023-02-08T10:33:16;2.08;;;1.40;;
60704;SDS011;46545;38.014;-7.874;2023-02-08T10:35:22;5.53;;;2.20;;
60704;SDS011;46545;38.014;-7.874;2023-02-08T10:37:30;2.88;;;1.45;;
60704;SDS011;46545;38.014;-7.874;2023-02-08T10:39:34;4.40;;;1.90;;
60704;SDS011;46545;38.014;-7.874;2023-02-08T10:41:35;1.92;;;1.38;;
60704;SDS011;46545;38.014;-7.874;2023-02-08T10:43:38;4.72;;;1.63;;
60704;SDS011;46545;38.014;-7.874;2023-02-08T10:45:45;5.00;;;1.98;;
60704;SDS011;46545;38.014;-7.874;2023-02-08T10:47:48;4.63;;;1.55;;
60704;SDS011;46545;38.014;-7.874;2023-02-08T10:50:15;4.72;;;1.70;;
60704;SDS011;46545;38.014;-7.874;2023-02-08T10:52:11;2.75;;;1.35;;
60704;SDS011;46545;38.014;-7.874;2023-02-08T10:54:12;3.30;;;1.90;;
60704;SDS011;46545;38.014;-7.874;2023-02-08T10:58:28;4.47;;;2.05;;
60704;SDS011;46545;38.014;-7.874;2023-02-08T11:00:30;2.63;;;1.88;;
60704;SDS011;46545;38.014;-7.874;2023-02-08T11:02:37;3.35;;;1.75;;
60704;SDS011;46545;38.014;-7.874;2023-02-08T11:04:43;4.88;;;2.08;;
60704;SDS011;46545;38.014;-7.874;2023-02-08T11:06:56;4.10;;;1.70;;
60704;SDS011;46545;38.014;-7.874;2023-02-08T11:08:56;4.20;;;1.75;;
60704;SDS011;46545;38.014;-7.874;2023-02-08T11:10:59;3.67;;;1.63;;
60704;SDS011;46545;38.014;-7.874;2023-02-08T11:15:02;8.60;;;2.58;;
60704;SDS011;46545;38.014;-7.874;2023-02-08T11:17:03;4.50;;;1.98;;
60704;SDS011;46545;38.014;-7.874;2023-02-08T11:19:04;7.05;;;2.33;;
60704;SDS011;46545;38.014;-7.874;2023-02-08T11:21:08;4.68;;;2.60;;
60704;SDS011;46545;38.014;-7.874;2023-02-08T11:23:21;4.30;;;2.60;;
60704;SDS011;46545;38.014;-7.874;2023-02-08T11:25:30;7.13;;;2.80;;
60704;SDS011;46545;38.014;-7.874;2023-02-08T11:27:35;3.22;;;2.42;;
60704;SDS011;46545;38.014;-7.874;2023-02-08T11:29:36;3.03;;;2.17;;
60704;SDS011;46545;38.014;-7.874;2023-02-08T11:31:36;3.70;;;1.85;;
60704;SDS011;46545;38.014;-7.874;2023-02-08T11:33:40;4.93;;;2.15;;
60704;SDS011;46545;38.014;-7.874;2023-02-08T11:37:57;3.63;;;2.30;;
60704;SDS011;46545;38.014;-7.874;2023-02-08T11:39:58;4.05;;;2.30;;
60704;SDS011;46545;38.014;-7.874;2023-02-08T11:41:59;6.45;;;3.33;;
60704;SDS011;46545;38.014;-7.874;2023-02-08T11:44:04;7.15;;;2.80;;
60704;SDS011;46545;38.014;-7.874;2023-02-08T11:46:05;4.68;;;2.85;;
60704;SDS011;46545;38.014;-7.874;2023-02-08T11:48:13;4.57;;;3.15;;
60704;SDS011;46545;38.014;-7.874;2023-02-08T11:50:23;3.17;;;1.85;;
60704;SDS011;46545;38.014;-7.874;2023-02-08T11:52:25;5.18;;;2.67;;
60704;SDS011;46545;38.014;-7.874;2023-02-08T11:54:30;9.77;;;2.60;;
60704;SDS011;46545;38.014;-7.874;2023-02-08T11:56:32;6.22;;;2.25;;
60704;SDS011;46545;38.014;-7.874;2023-02-08T11:58:33;3.80;;;2.28;;
60704;SDS011;46545;38.014;-7.874;2023-02-08T12:00:35;11.07;;;2.45;;
60704;SDS011;46545;38.014;-7.874;2023-02-08T12:02:37;4.00;;;2.22;;
60704;SDS011;46545;38.014;-7.874;2023-02-08T12:04:37;4.47;;;2.50;;
60704;SDS011;46545;38.014;-7.874;2023-02-08T12:12:47;4.78;;;2.58;;
60704;SDS011;46545;38.014;-7.874;2023-02-08T12:21:24;4.07;;;2.47;;
60704;SDS011;46545;38.014;-7.874;2023-02-08T12:27:51;2.05;;;1.85;;
60704;SDS011;46545;38.014;-7.874;2023-02-08T12:30:05;2.95;;;1.98;;
60704;SDS011;46545;38.014;-7.874;2023-02-08T12:32:19;3.40;;;2.20;;
60704;SDS011;46545;38.014;-7.874;2023-02-08T12:35:10;2.65;;;2.15;;
60704;SDS011;46545;38.014;-7.874;2023-02-08T12:36:54;7.32;;;3.25;;
60704;SDS011;46545;38.014;-7.874;2023-02-08T12:39:30;6.00;;;2.42;;
60704;SDS011;46545;38.014;-7.874;2023-02-08T12:46:32;9.48;;;3.30;;
60704;SDS011;46545;38.014;-7.874;2023-02-08T12:51:10;5.78;;;2.35;;
60704;SDS011;46545;38.014;-7.874;2023-02-08T12:53:26;7.13;;;2.95;;
60704;SDS011;46545;38.014;-7.874;2023-02-08T12:55:30;6.15;;;3.78;;
60704;SDS011;46545;38.014;-7.874;2023-02-08T12:57:33;6.15;;;2.60;;
60704;SDS011;46545;38.014;-7.874;2023-02-08T12:59:42;5.65;;;2.70;;
60704;SDS011;46545;38.014;-7.874;2023-02-08T13:01:45;5.25;;;2.92;;
60704;SDS011;46545;38.014;-7.874;2023-02-08T13:03:47;5.55;;;2.17;;
60704;SDS011;46545;38.014;-7.874;2023-02-08T13:05:50;6.20;;;2.80;;
60704;SDS011;46545;38.014;-7.874;2023-02-08T13:10:27;7.65;;;2.65;;
60704;SDS011;46545;38.014;-7.874;2023-02-08T13:12:29;8.65;;;2.55;;
60704;SDS011;46545;38.014;-7.874;2023-02-08T13:14:33;5.40;;;2.57;;
60704;SDS011;46545;38.014;-7.874;2023-02-08T13:16:36;7.13;;;4.00;;
60704;SDS011;46545;38.014;-7.874;2023-02-08T13:18:41;9.10;;;3.35;;
60704;SDS011;46545;38.014;-7.874;2023-02-08T13:20:49;3.90;;;2.50;;
60704;SDS011;46545;38.014;-7.874;2023-02-08T13:22:50;6.07;;;2.35;;
60704;SDS011;46545;38.014;-7.874;2023-02-08T13:24:52;6.00;;;1.83;;
60704;SDS011;46545;38.014;-7.874;2023-02-08T13:26:52;13.75;;;4.13;;
60704;SDS011;46545;38.014;-7.874;2023-02-08T13:28:54;10.00;;;3.90;;
60704;SDS011;46545;38.014;-7.874;2023-02-08T13:30:57;8.07;;;2.78;;
60704;SDS011;46545;38.014;-7.874;2023-02-08T13:32:58;5.03;;;3.30;;